Time;durP1;ratioP1;P1;durP2;ratioP2;P2;SDS_P1;SDS_P2;PMS_P1;PMS_P2;Temp;Humidity;BMP_temperature;BMP_pressure;BME280_temperature;BME280_humidity;BME280_pressure;Samples;Min_cycle;Max_cycle;Signal;HPM_P1;HPM_P2
2022/02/25 00:01:59;;;;;;;9.07;2.00;;;;;;;10.79;95.13;101414.25;4908101;29;20064;-48
2022/02/25 00:04:25;;;;;;;7.10;2.40;;;;;;;10.37;95.51;101414.59;4918519;29;20068;-51
2022/02/25 00:06:50;;;;;;;7.80;2.35;;;;;;;10.34;100.00;101409.59;4917158;29;20052;-48
2022/02/25 00:09:16;;;;;;;10.07;2.73;;;;;;;11.01;92.77;101418.69;4909541;29;20068;-52
2022/02/25 00:11:41;;;;;;;11.30;3.30;;;;;;;10.56;94.01;101423.16;4910387;29;20037;-51
2022/02/25 00:14:07;;;;;;;8.20;2.20;;;;;;;10.09;100.00;101427.69;4915974;29;20067;-47
2022/02/25 00:16:32;;;;;;;12.73;2.37;;;;;;;10.58;99.16;101426.47;4905040;29;20036;-49
2022/02/25 00:18:58;;;;;;;6.20;1.93;;;;;;;10.33;96.80;101418.63;4915764;29;20310;-49
2022/02/25 00:21:24;;;;;;;14.88;2.53;;;;;;;10.61;93.88;101431.50;4894124;29;20044;-50
2022/02/25 00:23:49;;;;;;;8.23;2.37;;;;;;;10.32;94.63;101433.88;4908966;29;20037;-50
2022/02/25 00:26:15;;;;;;;10.17;1.90;;;;;;;10.18;97.79;101434.63;4916643;29;20283;-51
2022/02/25 00:28:41;;;;;;;24.17;2.50;;;;;;;10.70;95.71;101442.94;4917232;29;20071;-52
2022/02/25 00:31:07;;;;;;;10.27;2.88;;;;;;;11.27;86.91;101451.41;4888353;29;20040;-52
2022/02/25 00:33:32;;;;;;;6.03;1.60;;;;;;;10.88;92.14;101450.63;4910983;29;20115;-52
2022/02/25 00:35:58;;;;;;;7.73;1.73;;;;;;;10.88;89.10;101453.31;4907804;29;20070;-47
2022/02/25 00:38:23;;;;;;;10.93;1.43;;;;;;;11.01;81.80;101452.69;4917485;29;20061;-47
2022/02/25 00:40:49;;;;;;;13.88;2.22;;;;;;;10.70;89.77;101454.47;4920188;29;20044;-52
2022/02/25 00:43:15;;;;;;;8.30;2.13;;;;;;;10.75;86.93;101459.28;4913186;29;20045;-52
2022/02/25 00:45:40;;;;;;;7.17;1.47;;;;;;;10.16;92.27;101458.03;4911763;29;20088;-49
2022/02/25 00:48:06;;;;;;;7.23;2.00;;;;;;;10.68;88.94;101450.31;4919339;29;20041;-48
2022/02/25 00:50:32;;;;;;;6.63;1.50;;;;;;;10.69;92.36;101460.00;4904079;29;20272;-50
2022/02/25 00:52:57;;;;;;;18.93;2.60;;;;;;;10.80;87.93;101462.25;4906127;29;20283;-47
2022/02/25 00:55:23;;;;;;;8.00;1.90;;;;;;;10.68;89.40;101459.19;4919856;29;20060;-48
2022/02/25 00:57:50;;;;;;;9.67;1.83;;;;;;;10.68;90.49;101459.19;4908700;29;20045;-49
2022/02/25 01:00:20;;;;;;;9.55;1.92;;;;;;;10.04;100.00;101465.63;4915942;29;20272;-49
2022/02/25 01:02:46;;;;;;;24.15;4.10;;;;;;;10.24;95.86;101465.16;4888080;29;20048;-47
2022/02/25 01:05:12;;;;;;;9.45;2.28;;;;;;;10.30;96.85;101453.75;4913278;29;20052;-48
2022/02/25 01:07:39;;;;;;;12.75;2.58;;;;;;;9.94;97.26;101452.50;4910664;29;20048;-47
2022/02/25 01:10:07;;;;;;;11.27;2.60;;;;;;;9.81;100.00;101458.41;4906451;29;20041;-47
2022/02/25 01:12:32;;;;;;;5.47;2.20;;;;;;;10.44;95.93;101453.03;4917648;29;20060;-50
2022/02/25 01:14:58;;;;;;;12.00;3.43;;;;;;;10.10;99.99;101456.91;4915145;29;20073;-50
2022/02/25 01:17:24;;;;;;;13.30;4.18;;;;;;;10.09;99.00;101455.22;4901074;29;20886;-47
2022/02/25 01:19:50;;;;;;;7.20;2.20;;;;;;;10.35;95.79;101454.03;4912128;29;20064;-47
2022/02/25 01:22:16;;;;;;;9.38;2.03;;;;;;;10.15;94.79;101454.53;4905014;29;20048;-47
2022/02/25 01:24:42;;;;;;;5.45;2.17;;;;;;;10.64;92.75;101455.19;4916331;29;20044;-49
2022/02/25 01:27:08;;;;;;;13.47;2.60;;;;;;;9.98;96.65;101447.63;4910517;29;20056;-47
2022/02/25 01:29:34;;;;;;;10.63;2.67;;;;;;;9.85;100.00;101454.38;4909890;29;20036;-48
2022/02/25 01:32:00;;;;;;;7.38;2.50;;;;;;;9.96;99.41;101449.66;4919536;29;20112;-45
2022/02/25 01:34:26;;;;;;;13.52;2.60;;;;;;;10.13;98.96;101455.72;4903736;29;20029;-50
2022/02/25 01:36:51;;;;;;;6.00;2.37;;;;;;;10.23;97.92;101455.50;4915770;29;20049;-50
2022/02/25 01:39:17;;;;;;;10.50;2.23;;;;;;;10.00;99.11;101464.31;4907609;29;20271;-48
2022/02/25 01:41:43;;;;;;;10.60;2.80;;;;;;;9.89;100.00;101458.34;4908892;29;20073;-50
2022/02/25 01:44:19;;;;;;;11.67;2.57;;;;;;;10.22;97.49;101459.16;4914262;29;20064;-50
2022/02/25 01:46:53;;;;;;;15.35;3.05;;;;;;;10.02;100.00;101446.25;4903629;29;20099;-48
2022/02/25 01:49:19;;;;;;;10.73;3.28;;;;;;;9.49;100.00;101454.03;4911918;29;20065;-49
2022/02/25 01:51:47;;;;;;;21.95;4.60;;;;;;;9.01;100.00;101468.19;4894678;29;20051;-47
2022/02/25 01:54:13;;;;;;;18.80;3.60;;;;;;;9.76;100.00;101460.78;4905034;29;20106;-47
2022/02/25 01:56:40;;;;;;;12.88;4.43;;;;;;;9.71;100.00;101457.81;4915628;29;20053;-51
2022/02/25 01:59:06;;;;;;;14.60;4.30;;;;;;;9.69;100.00;101462.50;4905413;29;20055;-46
2022/02/25 02:01:33;;;;;;;8.00;3.67;;;;;;;9.59;100.00;101462.69;4909947;29;20048;-51
2022/02/25 02:03:59;;;;;;;7.80;3.23;;;;;;;9.26;100.00;101468.97;4911934;29;20052;-50
2022/02/25 02:06:24;;;;;;;18.17;4.35;;;;;;;9.59;100.00;101466.19;4903337;29;20133;-50
2022/02/25 02:08:51;;;;;;;16.10;3.85;;;;;;;9.58;100.00;101461.03;4915216;29;20045;-46
2022/02/25 02:11:29;;;;;;;14.47;3.77;;;;;;;10.28;100.00;101458.44;4906893;29;20047;-50
2022/02/25 02:13:54;;;;;;;20.83;4.32;;;;;;;9.87;100.00;101468.38;4890724;29;20040;-51
2022/02/25 02:16:21;;;;;;;16.00;3.55;;;;;;;10.21;99.10;101461.00;4915167;29;20041;-52
2022/02/25 02:18:47;;;;;;;11.48;3.85;;;;;;;9.76;100.00;101460.78;4903170;29;20067;-51
2022/02/25 02:21:12;;;;;;;9.13;3.33;;;;;;;10.32;97.58;101471.28;4902452;29;20033;-47
2022/02/25 02:23:38;;;;;;;10.80;3.70;;;;;;;9.96;99.08;101457.66;4918630;29;20040;-50
2022/02/25 02:26:03;;;;;;;10.07;4.47;;;;;;;9.82;100.00;101460.06;4905716;29;20067;-49
2022/02/25 02:28:29;;;;;;;11.87;3.43;;;;;;;10.14;100.00;101468.88;4915423;29;20040;-48
2022/02/25 02:30:54;;;;;;;9.63;3.20;;;;;;;10.44;95.97;101462.88;4903818;29;20276;-46
2022/02/25 02:33:21;;;;;;;16.67;3.23;;;;;;;10.08;100.00;101466.13;4911338;29;20040;-51
2022/02/25 02:35:47;;;;;;;15.40;3.78;;;;;;;9.96;100.00;101466.50;4910346;29;20057;-50
2022/02/25 02:38:13;;;;;;;10.98;3.63;;;;;;;10.42;95.22;101462.22;4904570;29;20041;-50
2022/02/25 02:40:38;;;;;;;14.05;3.78;;;;;;;9.87;99.45;101464.91;4901291;29;20069;-48
2022/02/25 02:43:06;;;;;;;15.17;4.17;;;;;;;9.71;100.00;101471.97;4913409;29;20053;-48
2022/02/25 02:45:32;;;;;;;15.85;4.03;;;;;;;9.84;98.20;101466.06;4908351;29;20036;-47
2022/02/25 02:47:57;;;;;;;20.30;4.70;;;;;;;10.09;96.48;101470.44;4906398;29;20041;-51
2022/02/25 02:50:22;;;;;;;12.33;4.90;;;;;;;9.97;98.52;101462.00;4914858;29;20056;-49
2022/02/25 02:52:48;;;;;;;15.53;4.10;;;;;;;10.03;98.75;101475.50;4899858;29;20044;-49
2022/02/25 02:55:13;;;;;;;22.10;3.77;;;;;;;9.87;99.68;101464.91;4905702;29;20056;-48
2022/02/25 02:57:39;;;;;;;10.20;3.47;;;;;;;10.28;94.84;101464.66;4908709;29;20102;-46
2022/02/25 03:00:05;;;;;;;11.55;3.65;;;;;;;10.83;88.97;101451.19;4912460;29;20048;-49
2022/02/25 03:02:31;;;;;;;;;;;;;;;10.36;92.97;101466.41;4903248;29;20097;-46
2022/02/25 03:04:56;;;;;;;12.47;3.77;;;;;;;10.06;97.39;101455.59;4914248;29;19916;-46
2022/02/25 03:07:23;;;;;;;18.70;4.30;;;;;;;10.29;97.13;101452.09;4906878;29;20048;-47
2022/02/25 03:09:49;;;;;;;22.98;4.82;;;;;;;9.80;100.00;101455.91;4907525;29;20073;-49
2022/02/25 03:12:15;;;;;;;16.88;3.63;;;;;;;10.44;93.98;101462.88;4913605;29;20055;-46
2022/02/25 03:14:41;;;;;;;16.30;4.17;;;;;;;10.13;94.91;101451.19;4902423;29;20056;-49
2022/02/25 03:17:07;;;;;;;20.57;3.47;;;;;;;10.37;89.41;101453.88;4915621;29;20055;-51
2022/02/25 03:19:35;;;;;;;12.18;3.80;;;;;;;10.53;89.38;101460.97;4911680;29;20275;-47
2022/02/25 03:22:01;;;;;;;15.15;3.72;;;;;;;10.12;95.17;101465.56;4902273;29;20071;-49
2022/02/25 03:24:27;;;;;;;;;;;;;;;10.26;96.64;101449.78;4918633;29;20069;-48
2022/02/25 03:26:52;;;;;;;10.97;3.40;;;;;;;9.67;99.46;101451.97;4906088;29;19947;-52
2022/02/25 03:29:18;;;;;;;10.93;4.15;;;;;;;9.60;100.00;101456.34;4914957;29;20104;-50
2022/02/25 03:31:43;;;;;;;20.07;3.83;;;;;;;9.94;100.00;101459.69;4912755;29;20066;-48
2022/02/25 03:34:09;;;;;;;14.63;3.63;;;;;;;9.87;97.69;101464.91;4908340;29;20040;-46
2022/02/25 03:36:34;;;;;;;22.63;5.27;;;;;;;10.10;95.48;101459.56;4918143;29;20040;-46
2022/02/25 03:39:00;;;;;;;9.50;3.90;;;;;;;9.59;100.00;101460.84;4890764;29;20299;-47
2022/02/25 03:41:25;;;;;;;14.13;4.10;;;;;;;9.44;100.00;101462.56;4913722;29;20037;-47
2022/02/25 03:43:52;;;;;;;20.93;5.43;;;;;;;9.60;100.00;101462.50;4913653;29;20047;-46
2022/02/25 03:46:18;;;;;;;11.63;3.47;;;;;;;9.55;100.00;101459.53;4907030;29;20276;-48
2022/02/25 03:48:44;;;;;;;16.25;3.85;;;;;;;9.47;100.00;101451.56;4917762;29;20089;-47
2022/02/25 03:51:09;;;;;;;20.03;5.00;;;;;;;9.30;100.00;101456.94;4902557;29;20081;-48
2022/02/25 03:53:35;;;;;;;11.23;3.77;;;;;;;9.73;100.00;101463.81;4910968;29;20062;-50
2022/02/25 03:56:00;;;;;;;17.83;4.97;;;;;;;9.51;100.00;101460.03;4908864;29;20053;-49
2022/02/25 03:58:26;;;;;;;15.20;4.83;;;;;;;9.67;100.00;101464.47;4917586;29;20032;-49
2022/02/25 04:00:52;;;;;;;19.42;3.90;;;;;;;9.45;100.00;101475.75;4920999;29;20037;-51
2022/02/25 04:03:18;;;;;;;25.15;5.15;;;;;;;9.44;100.00;101473.25;4914379;29;20033;-52
2022/02/25 04:05:43;;;;;;;21.30;4.27;;;;;;;9.73;100.00;101467.28;4911890;29;20040;-48
2022/02/25 04:08:09;;;;;;;26.00;5.07;;;;;;;9.29;100.00;101467.78;4907890;29;20037;-45
2022/02/25 04:10:35;;;;;;;20.73;3.83;;;;;;;9.04;100.00;101462.50;4917234;29;20045;-47
2022/02/25 04:13:01;;;;;;;15.85;4.15;;;;;;;9.83;100.00;101464.41;4906380;29;20033;-48
2022/02/25 04:15:27;;;;;;;20.30;3.95;;;;;;;9.86;100.00;101476.59;4913039;29;20036;-48
2022/02/25 04:17:52;;;;;;;14.90;3.20;;;;;;;9.84;100.00;101467.91;4913092;29;20044;-50
2022/02/25 04:20:18;;;;;;;13.55;3.35;;;;;;;9.64;100.00;101472.84;4920634;29;20069;-50
2022/02/25 04:22:43;;;;;;;17.73;4.60;;;;;;;9.88;100.00;101474.56;4904849;29;20049;-48
2022/02/25 04:25:09;;;;;;;18.90;4.57;;;;;;;9.63;100.00;101466.69;4920621;29;20115;-51
2022/02/25 04:27:35;;;;;;;23.02;4.75;;;;;;;9.91;100.00;101463.53;4911619;29;20143;-49
2022/02/25 04:30:01;;;;;;;17.10;3.97;;;;;;;10.14;98.68;101468.06;4913698;29;20044;-46
2022/02/25 04:32:26;;;;;;;11.02;3.38;;;;;;;9.27;100.00;101470.66;4905139;29;20037;-47
2022/02/25 04:34:52;;;;;;;13.33;3.90;;;;;;;9.84;100.00;101479.41;4917119;29;20041;-49
2022/02/25 04:37:18;;;;;;;11.70;2.40;;;;;;;9.41;100.00;101478.94;4907736;29;20037;-50
2022/02/25 04:39:43;;;;;;;12.50;3.73;;;;;;;9.55;100.00;101493.41;4910557;29;20056;-50
2022/02/25 04:42:09;;;;;;;20.30;4.82;;;;;;;9.73;100.00;101479.81;4914606;29;20057;-51
2022/02/25 04:44:34;;;;;;;17.83;3.50;;;;;;;9.59;100.00;101479.53;4904282;29;20049;-48
2022/02/25 04:47:00;;;;;;;16.65;3.83;;;;;;;10.14;100.00;101474.22;4916002;29;20036;-48
2022/02/25 04:49:26;;;;;;;14.27;5.57;;;;;;;10.76;93.49;101488.53;4908309;29;20040;-47
2022/02/25 04:51:52;;;;;;;16.38;3.53;;;;;;;9.78;100.00;101489.97;4909476;29;20043;-53
2022/02/25 04:54:18;;;;;;;14.98;4.10;;;;;;;9.81;100.00;101493.13;4915006;29;20052;-53
2022/02/25 04:56:43;;;;;;;13.13;3.40;;;;;;;10.35;99.24;101491.47;4904067;29;20044;-51
2022/02/25 04:59:09;;;;;;;16.83;3.50;;;;;;;10.50;96.30;101493.41;4919974;29;20271;-49
2022/02/25 05:01:34;;;;;;;30.53;5.70;;;;;;;10.32;96.96;101486.50;4911422;29;20045;-53
2022/02/25 05:04:00;;;;;;;13.23;3.30;;;;;;;10.47;97.15;101482.06;4912706;29;20040;-53
2022/02/25 05:06:25;;;;;;;23.87;3.80;;;;;;;10.24;99.28;101476.69;4919933;29;20036;-52
2022/02/25 05:08:54;;;;;;;32.13;5.90;;;;;;;10.69;94.54;101476.88;4904339;29;20308;-50
2022/02/25 05:11:19;;;;;;;15.27;3.25;;;;;;;9.96;100.00;101481.72;4913352;29;20044;-51
2022/02/25 05:13:45;;;;;;;21.30;4.10;;;;;;;10.01;100.00;101474.81;4910577;29;20032;-47
2022/02/25 05:21:38;;;;;;;20.80;5.07;;;;;;;10.42;100.00;101467.56;4909407;29;20084;-51
2022/02/25 05:24:04;;;;;;;21.13;2.83;;;;;;;10.39;100.00;101470.56;4907468;29;20096;-53
2022/02/25 05:26:30;;;;;;;21.45;3.50;;;;;;;10.53;100.00;101466.31;4916175;29;20286;-52
2022/02/25 05:28:56;;;;;;;;;;;;;;;10.72;98.45;101470.31;4900114;29;20049;-51
2022/02/25 05:31:22;;;;;;;15.90;4.17;;;;;;;10.22;100.00;101460.00;4900748;29;19939;-53
2022/02/25 05:33:48;;;;;;;22.03;6.70;;;;;;;10.60;100.00;101461.91;4910555;29;20060;-58
2022/02/25 05:36:16;;;;;;;19.90;3.03;;;;;;;10.10;100.00;101466.75;4905955;29;20284;-53
2022/02/25 05:38:42;;;;;;;25.08;4.00;;;;;;;10.83;100.00;101472.59;4915584;29;20036;-51
2022/02/25 05:41:07;;;;;;;23.13;3.33;;;;;;;10.44;100.00;101469.06;4905250;29;20060;-51
2022/02/25 05:43:33;;;;;;;28.03;5.83;;;;;;;10.19;100.00;101471.03;4912270;29;20056;-50
2022/02/25 05:45:58;;;;;;;11.43;3.17;;;;;;;10.34;100.00;101473.78;4912627;29;20286;-52
2022/02/25 05:48:24;;;;;;;11.85;3.70;;;;;;;10.38;100.00;101472.44;4904578;29;20048;-48
2022/02/25 05:50:49;;;;;;;10.50;2.93;;;;;;;10.33;100.00;101482.81;4915856;29;20036;-53
2022/02/25 05:53:15;;;;;;;18.27;2.77;;;;;;;10.28;100.00;101486.03;4905830;29;20040;-51
2022/02/25 05:55:40;;;;;;;23.02;4.38;;;;;;;10.14;100.00;101500.16;4893976;29;20044;-48
2022/02/25 05:58:06;;;;;;;20.67;3.40;;;;;;;9.89;100.00;101492.25;4912445;29;20059;-50
2022/02/25 06:00:32;;;;;;;16.83;2.23;;;;;;;9.42;100.00;101499.28;4903528;29;20073;-52
2022/02/25 06:02:57;;;;;;;34.67;4.63;;;;;;;9.56;100.00;101505.75;4903479;29;20047;-49
2022/02/25 06:05:23;;;;;;;22.20;3.03;;;;;;;10.00;100.00;101504.41;4911458;29;20041;-49
2022/02/25 06:07:49;;;;;;;17.73;3.60;;;;;;;10.67;100.00;101500.31;4910113;29;20041;-52
2022/02/25 06:10:15;;;;;;;30.10;4.40;;;;;;;10.83;100.00;101498.50;4889072;29;20112;-50
2022/02/25 06:12:41;;;;;;;22.52;3.38;;;;;;;10.33;100.00;101502.38;4915570;29;20037;-54
2022/02/25 06:15:08;;;;;;;16.02;3.60;;;;;;;10.42;100.00;101513.88;4904191;29;20112;-52
2022/02/25 06:17:45;;;;;;;16.83;2.83;;;;;;;10.13;100.00;101523.34;4910776;29;20033;-49
2022/02/25 06:20:11;;;;;;;8.75;3.08;;;;;;;10.13;100.00;101498.47;4912205;29;20072;-48
2022/02/25 06:22:36;;;;;;;24.73;4.20;;;;;;;10.10;100.00;101515.69;4902747;29;20048;-50
2022/02/25 06:25:02;;;;;;;24.00;4.10;;;;;;;10.39;100.00;101510.69;4914915;29;20060;-52
2022/02/25 06:27:28;;;;;;;18.50;4.10;;;;;;;9.78;100.00;101506.84;4907038;29;20072;-52
2022/02/25 06:29:54;;;;;;;19.30;2.77;;;;;;;9.86;100.00;101514.00;4908497;29;20036;-52
2022/02/25 06:32:19;;;;;;;23.27;5.32;;;;;;;9.99;100.00;101514.25;4913373;29;20043;-52
2022/02/25 06:34:45;;;;;;;20.33;3.43;;;;;;;10.01;100.00;101532.78;4903068;29;20052;-53
2022/02/25 06:37:10;;;;;;;14.90;4.57;;;;;;;10.44;100.00;101524.38;4913843;29;20044;-53
2022/02/25 06:39:37;;;;;;;27.13;5.13;;;;;;;10.37;100.00;101532.22;4899558;29;20276;-51
2022/02/25 06:42:02;;;;;;;;;;;;;;;10.24;100.00;101542.69;4911505;29;20036;-51
2022/02/25 06:44:28;;;;;;;22.50;4.90;;;;;;;10.28;100.00;101544.00;4903552;29;19931;-53
2022/02/25 06:46:54;;;;;;;24.77;4.80;;;;;;;10.95;100.00;101547.06;4915256;29;20045;-51
2022/02/25 06:49:19;;;;;;;26.53;4.43;;;;;;;11.35;100.00;101552.22;4905548;29;20108;-48
2022/02/25 06:51:45;;;;;;;26.10;4.27;;;;;;;10.33;100.00;101563.00;4911879;29;20048;-54
2022/02/25 06:54:11;;;;;;;23.23;4.05;;;;;;;10.39;100.00;101561.47;4899445;29;20430;-51
2022/02/25 06:56:37;;;;;;;22.63;4.00;;;;;;;10.82;100.00;101566.41;4906182;29;20037;-51
2022/02/25 06:59:02;;;;;;;15.47;4.70;;;;;;;10.98;100.00;101571.63;4907015;29;20057;-52
2022/02/25 07:01:28;;;;;;;19.38;3.40;;;;;;;11.36;100.00;101569.97;4914773;29;20065;-51
2022/02/25 07:03:53;;;;;;;18.30;4.20;;;;;;;11.10;100.00;101565.84;4913598;29;20044;-49
2022/02/25 07:06:23;;;;;;;22.45;6.70;;;;;;;10.91;100.00;101568.00;4908192;29;20109;-54
2022/02/25 07:08:50;;;;;;;22.25;4.68;;;;;;;11.77;100.00;101581.06;4918508;29;20071;-50
2022/02/25 07:11:16;;;;;;;;;;;;;;;11.42;100.00;101577.25;4908428;29;20069;-50
2022/02/25 07:13:42;;;;;;;40.95;7.65;;;;;;;11.46;100.00;101582.06;4913139;29;19916;-52
2022/02/25 07:16:07;;;;;;;41.83;8.27;;;;;;;11.63;100.00;101584.56;4914782;29;20037;-51
2022/02/25 07:18:33;;;;;;;36.00;7.50;;;;;;;11.16;100.00;101581.19;4906364;29;20056;-53
2022/02/25 07:20:58;;;;;;;50.37;8.90;;;;;;;11.36;100.00;101594.06;4889447;29;20033;-51
2022/02/25 07:23:24;;;;;;;30.30;5.27;;;;;;;11.62;100.00;101593.63;4915210;29;20288;-52
2022/02/25 07:25:49;;;;;;;25.23;5.77;;;;;;;11.55;100.00;101603.41;4912515;29;20092;-53
2022/02/25 07:28:15;;;;;;;29.20;3.80;;;;;;;11.55;100.00;101593.53;4908287;29;20130;-50
2022/02/25 07:30:40;;;;;;;21.83;3.90;;;;;;;12.00;100.00;101614.16;4918862;29;20069;-53
2022/02/25 07:33:06;;;;;;;21.80;4.07;;;;;;;12.21;100.00;101617.94;4917367;29;20032;-54
2022/02/25 07:35:32;;;;;;;23.30;3.80;;;;;;;12.13;100.00;101625.06;4909661;29;20064;-48
2022/02/25 07:37:57;;;;;;;11.70;3.42;;;;;;;12.06;100.00;101632.22;4921112;29;20104;-50
2022/02/25 07:40:24;;;;;;;20.90;3.93;;;;;;;12.52;100.00;101636.47;4921299;29;20041;-50
2022/02/25 07:42:50;;;;;;;18.25;3.50;;;;;;;12.66;100.00;101631.28;4904863;29;20041;-51
2022/02/25 07:45:16;;;;;;;25.65;3.85;;;;;;;12.89;100.00;101631.91;4919975;29;20101;-53
2022/02/25 07:47:42;;;;;;;18.30;3.35;;;;;;;13.20;100.00;101641.50;4911444;29;20037;-53
2022/02/25 07:50:09;;;;;;;20.73;3.70;;;;;;;12.63;100.00;101648.56;4912539;29;20044;-53
2022/02/25 07:52:35;;;;;;;19.80;4.30;;;;;;;12.51;100.00;101650.91;4919689;29;20037;-50
2022/02/25 07:55:01;;;;;;;21.67;3.30;;;;;;;12.50;100.00;101656.47;4904818;29;20044;-48
2022/02/25 07:57:27;;;;;;;31.13;4.15;;;;;;;11.93;100.00;101670.34;4921164;29;20032;-51
2022/02/25 07:59:53;;;;;;;17.90;3.07;;;;;;;12.39;100.00;101668.53;4911299;29;20044;-48
2022/02/25 08:02:18;;;;;;;28.70;4.60;;;;;;;12.79;100.00;101674.34;4914677;29;20104;-51
2022/02/25 08:04:43;;;;;;;15.23;3.43;;;;;;;12.77;100.00;101684.44;4904940;29;20101;-52
2022/02/25 08:07:09;;;;;;;27.43;3.80;;;;;;;13.54;100.00;101670.53;4900073;29;20093;-52
2022/02/25 08:09:35;;;;;;;29.60;6.15;;;;;;;13.03;100.00;101683.91;4909494;29;20041;-54
2022/02/25 08:12:02;;;;;;;17.10;2.92;;;;;;;13.24;99.99;101687.59;4916253;29;20071;-53
2022/02/25 08:14:27;;;;;;;19.30;3.28;;;;;;;13.88;100.00;101690.41;4918485;29;20177;-47
2022/02/25 08:16:52;;;;;;;18.87;2.83;;;;;;;13.82;100.00;101697.41;4905026;29;20044;-52
2022/02/25 08:19:18;;;;;;;28.77;5.97;;;;;;;13.72;100.00;101695.06;4920854;29;20084;-55
2022/02/25 08:21:43;;;;;;;19.67;4.00;;;;;;;13.31;100.00;101704.59;4912309;29;20045;-51
2022/02/25 08:24:09;;;;;;;21.30;5.03;;;;;;;13.29;100.00;101709.34;4913422;29;20048;-52
2022/02/25 08:26:35;;;;;;;16.05;3.67;;;;;;;12.93;100.00;101718.28;4920280;29;20056;-49
2022/02/25 08:29:01;;;;;;;15.83;3.43;;;;;;;13.33;100.00;101713.31;4900299;29;20040;-49
2022/02/25 08:31:27;;;;;;;26.05;5.70;;;;;;;13.60;100.00;101713.56;4907587;29;20323;-53
2022/02/25 08:33:52;;;;;;;21.00;3.55;;;;;;;13.98;100.00;101720.50;4918143;29;20043;-53
2022/02/25 08:36:19;;;;;;;26.42;4.13;;;;;;;13.21;100.00;101728.28;4906255;29;20040;-53
2022/02/25 08:38:45;;;;;;;24.25;5.05;;;;;;;13.61;100.00;101725.16;4900875;29;20037;-50
2022/02/25 08:41:11;;;;;;;17.75;3.10;;;;;;;13.72;100.00;101737.25;4905351;29;20032;-52
2022/02/25 08:43:36;;;;;;;19.95;3.95;;;;;;;14.15;98.39;101758.66;4912233;29;20037;-52
2022/02/25 08:46:02;;;;;;;22.77;3.67;;;;;;;14.46;94.65;101743.94;4912300;29;20043;-51
2022/02/25 08:48:28;;;;;;;23.40;4.90;;;;;;;14.70;90.47;101749.03;4905371;29;20092;-52
2022/02/25 08:50:54;;;;;;;12.88;3.10;;;;;;;14.44;93.42;101753.25;4916481;29;20037;-54
2022/02/25 08:53:20;;;;;;;15.52;3.45;;;;;;;14.64;89.71;101750.66;4890270;29;20071;-52
2022/02/25 08:55:46;;;;;;;20.85;3.53;;;;;;;15.06;88.70;101764.09;4910901;29;20053;-53
2022/02/25 08:58:13;;;;;;;18.70;3.92;;;;;;;15.23;87.06;101769.09;4913064;29;20041;-51
2022/02/25 09:00:39;;;;;;;18.55;3.13;;;;;;;15.16;86.87;101758.31;4919100;29;20052;-52
2022/02/25 09:03:05;;;;;;;19.55;2.90;;;;;;;14.98;86.11;101767.78;4903427;29;20036;-51
2022/02/25 09:05:31;;;;;;;17.63;4.95;;;;;;;14.86;86.78;101782.88;4919435;29;20037;-53
2022/02/25 09:07:56;;;;;;;19.10;3.57;;;;;;;15.80;79.09;101785.75;4909364;29;20051;-51
2022/02/25 09:10:24;;;;;;;19.00;4.35;;;;;;;14.98;83.52;101788.50;4914470;29;20061;-49
2022/02/25 09:12:49;;;;;;;20.33;3.05;;;;;;;14.33;92.11;101789.63;4903576;29;20139;-53
2022/02/25 09:15:22;;;;;;;27.55;4.68;;;;;;;14.35;93.55;101801.00;4914061;29;20148;-51
2022/02/25 09:17:55;;;;;;;15.60;3.10;;;;;;;15.28;87.75;101812.44;4900052;29;20066;-52
2022/02/25 09:20:21;;;;;;;23.35;4.85;;;;;;;14.63;85.19;101810.91;4900618;29;20045;-53
2022/02/25 09:22:47;;;;;;;17.17;2.92;;;;;;;14.60;89.02;101811.31;4915893;29;20089;-50
2022/02/25 09:25:13;;;;;;;;;;;;;;;14.47;88.67;101807.50;4905187;29;20136;-48
2022/02/25 09:27:39;;;;;;;17.63;3.37;;;;;;;14.04;90.56;101815.66;4911448;29;19920;-50
2022/02/25 09:30:07;;;;;;;21.92;3.50;;;;;;;14.58;89.38;101814.19;4902779;29;20069;-52
2022/02/25 09:32:33;;;;;;;18.45;3.38;;;;;;;14.97;90.67;101811.91;4914276;29;20051;-51
2022/02/25 09:34:58;;;;;;;19.55;2.25;;;;;;;14.89;92.38;101814.78;4902506;29;20041;-52
2022/02/25 09:37:23;;;;;;;12.97;3.30;;;;;;;15.24;84.69;101827.34;4911149;29;20041;-53
2022/02/25 09:39:49;;;;;;;16.43;3.13;;;;;;;14.75;80.44;101836.25;4907069;29;20132;-52
2022/02/25 09:42:18;;;;;;;21.80;3.67;;;;;;;14.48;88.39;101833.38;4904914;29;20047;-51
2022/02/25 09:44:43;;;;;;;15.55;2.40;;;;;;;14.47;91.83;101838.97;4912912;29;20306;-52
2022/02/25 09:47:08;;;;;;;20.17;3.10;;;;;;;13.97;97.89;101839.00;4902081;29;20060;-51
2022/02/25 09:49:34;;;;;;;16.37;2.80;;;;;;;14.06;89.84;101840.50;4910030;29;20041;-51
2022/02/25 09:52:00;;;;;;;14.15;3.22;;;;;;;14.50;93.01;101843.97;4909889;29;20112;-53
2022/02/25 09:54:25;;;;;;;14.13;2.78;;;;;;;14.35;92.14;101849.44;4904682;29;20060;-51
2022/02/25 09:56:51;;;;;;;18.50;2.58;;;;;;;14.34;86.44;101858.56;4900572;29;20036;-56
2022/02/25 09:59:17;;;;;;;28.13;4.23;;;;;;;14.51;89.52;101848.31;4918853;29;20052;-50
2022/02/25 10:01:44;;;;;;;14.52;4.15;;;;;;;14.79;86.95;101847.47;4910690;29;20045;-51
2022/02/25 10:04:20;;;;;;;14.77;3.22;;;;;;;14.89;88.73;101850.63;4911037;29;20044;-46
2022/02/25 10:06:47;;;;;;;14.63;3.60;;;;;;;14.71;86.94;101855.72;4917784;29;20051;-49
2022/02/25 10:09:14;;;;;;;21.77;3.50;;;;;;;14.53;82.37;101857.00;4904082;29;20044;-50
2022/02/25 10:12:01;;;;;;;14.52;2.65;;;;;;;14.81;82.33;101863.44;4911097;29;20037;-50
2022/02/25 10:14:47;;;;;;;10.52;2.88;;;;;;;16.62;70.87;101873.75;4913617;29;20036;-52
2022/02/25 10:17:21;;;;;;;15.30;3.10;;;;;;;17.90;59.93;101887.56;4903806;29;20063;-50
2022/02/25 10:19:53;;;;;;;15.83;3.10;;;;;;;18.92;55.71;101880.19;4918035;29;20350;-51
2022/02/25 10:22:20;;;;;;;20.57;4.13;;;;;;;18.70;51.69;101893.38;4918661;29;20350;-49
2022/02/25 10:24:57;;;;;;;15.90;2.57;;;;;;;19.32;50.87;101880.78;4905948;29;20311;-49
2022/02/25 10:27:32;;;;;;;13.73;2.80;;;;;;;19.56;53.46;101903.41;4905086;29;20283;-50
2022/02/25 10:30:00;;;;;;;14.87;2.50;;;;;;;18.52;51.69;101905.00;4918330;29;20290;-49
2022/02/25 10:32:27;;;;;;;17.00;2.83;;;;;;;17.82;55.82;101909.47;4887952;29;20276;-51
2022/02/25 10:34:52;;;;;;;16.83;4.47;;;;;;;16.66;64.73;101904.69;4900835;29;20276;-52
2022/02/25 10:37:17;;;;;;;17.73;4.23;;;;;;;17.24;61.32;101905.00;4913707;29;20298;-47
2022/02/25 10:39:43;;;;;;;22.30;5.17;;;;;;;18.70;57.57;101916.91;4907418;29;20040;-54
2022/02/25 10:42:18;;;;;;;17.08;4.07;;;;;;;18.51;54.94;101921.47;4918347;29;20041;-52
2022/02/25 10:45:07;;;;;;;21.73;4.93;;;;;;;18.49;53.47;101921.69;4917747;29;20116;-52
2022/02/25 10:47:34;;;;;;;24.10;6.07;;;;;;;19.28;53.40;101926.50;4905327;29;20277;-51
2022/02/25 10:50:15;;;;;;;12.83;3.10;;;;;;;21.13;45.54;101944.13;4908113;29;20360;-48
2022/02/25 10:52:47;;;;;;;14.47;2.93;;;;;;;20.67;45.79;101933.84;4898188;29;20299;-51
2022/02/25 10:55:18;;;;;;;17.03;3.50;;;;;;;22.20;44.67;101936.34;4903038;29;20376;-51
2022/02/25 10:57:47;;;;;;;15.67;2.73;;;;;;;21.89;40.40;101946.69;4909784;29;20033;-49
2022/02/25 11:00:14;;;;;;;14.17;3.23;;;;;;;20.65;44.21;101959.63;4911019;29;20059;-50
2022/02/25 11:02:43;;;;;;;16.53;3.60;;;;;;;19.26;48.61;101950.31;4917536;29;20040;-53
2022/02/25 11:05:12;;;;;;;13.97;3.40;;;;;;;19.68;49.10;101956.91;4902613;29;20064;-48
2022/02/25 11:07:43;;;;;;;13.43;2.67;;;;;;;18.78;49.23;101963.53;4917940;29;20271;-53
2022/02/25 11:10:12;;;;;;;14.77;3.83;;;;;;;18.07;54.52;101970.97;4906898;29;20304;-48
2022/02/25 11:12:40;;;;;;;19.37;4.60;;;;;;;18.38;53.14;101952.22;4914055;29;20286;-50
2022/02/25 11:15:08;;;;;;;13.30;3.40;;;;;;;17.73;53.45;101959.47;4914856;29;20276;-52
2022/02/25 11:17:35;;;;;;;17.73;3.20;;;;;;;17.01;59.14;101952.25;4905531;29;20339;-48
2022/02/25 11:20:04;;;;;;;16.13;3.77;;;;;;;17.55;57.11;101960.19;4903198;29;20364;-50